KBLU/BLU METAR and TAF weather

Enter ICAO airport designator
Station Type Date Time Source
KBLU METAR 2021/09/28 16:52 UTC NOAA

KBLU 281652Z AUTO VRB06KT 10SM CLR 10/M03 A3010 RMK AO2 SLP153 T01001028


Station Type Date Time Source
KBLU Decoded METAR 2021/09/28 16:52 UTC NOAA

BLUE CANYON AIRPORT, CA, United States (KBLU) 39-17N 120-42W 1609M
Sep 28, 2021 - 12:52 PM EDT / 2021.09.28 1652 UTC
Wind: Variable at 7 MPH (6 KT):0
Visibility: 10 mile(s):0
Sky conditions: clear
Temperature: 50.0 F (10.0 C)
Dew Point: 27.0 F (-2.8 C)
Relative Humidity: 40%
Pressure (altimeter): 30.1 in. Hg (1019 hPa)
ob: KBLU 281652Z AUTO VRB06KT 10SM CLR 10/M03 A3010 RMK AO2 SLP153 T01001028
cycle: 17

Station Type Date Time Source
KBLU TAF UTC NOAA

Error!

Example: see airport list